sensor_id;sensor_type;location;lat;lon;timestamp;P1;durP1;ratioP1;P2;durP2;ratioP2
40373;SDS011;26079;45.958;12.492;2023-07-30T00:00:20;11.02;;;6.47;;
40373;SDS011;26079;45.958;12.492;2023-07-30T00:02:46;7.68;;;6.90;;
40373;SDS011;26079;45.958;12.492;2023-07-30T00:05:11;9.10;;;7.68;;
40373;SDS011;26079;45.958;12.492;2023-07-30T00:07:37;8.38;;;6.25;;
40373;SDS011;26079;45.958;12.492;2023-07-30T00:10:03;9.60;;;7.03;;
40373;SDS011;26079;45.958;12.492;2023-07-30T00:12:28;10.93;;;7.95;;
40373;SDS011;26079;45.958;12.492;2023-07-30T00:14:54;9.30;;;7.15;;
40373;SDS011;26079;45.958;12.492;2023-07-30T00:17:20;7.35;;;6.68;;
40373;SDS011;26079;45.958;12.492;2023-07-30T00:19:45;6.95;;;6.32;;
40373;SDS011;26079;45.958;12.492;2023-07-30T00:22:11;18.83;;;6.28;;
40373;SDS011;26079;45.958;12.492;2023-07-30T00:24:37;10.13;;;7.32;;
40373;SDS011;26079;45.958;12.492;2023-07-30T00:27:02;12.27;;;7.40;;
40373;SDS011;26079;45.958;12.492;2023-07-30T00:29:28;7.95;;;7.07;;
40373;SDS011;26079;45.958;12.492;2023-07-30T00:31:54;14.57;;;8.93;;
40373;SDS011;26079;45.958;12.492;2023-07-30T00:34:20;11.13;;;7.47;;
40373;SDS011;26079;45.958;12.492;2023-07-30T00:36:45;13.23;;;7.95;;
40373;SDS011;26079;45.958;12.492;2023-07-30T00:39:11;8.90;;;7.88;;
40373;SDS011;26079;45.958;12.492;2023-07-30T00:41:37;23.52;;;10.05;;
40373;SDS011;26079;45.958;12.492;2023-07-30T00:44:02;11.32;;;7.85;;
40373;SDS011;26079;45.958;12.492;2023-07-30T00:46:29;9.55;;;6.95;;
40373;SDS011;26079;45.958;12.492;2023-07-30T00:48:55;7.25;;;6.57;;
40373;SDS011;26079;45.958;12.492;2023-07-30T00:51:21;8.88;;;7.68;;
40373;SDS011;26079;45.958;12.492;2023-07-30T00:53:47;11.35;;;7.30;;
40373;SDS011;26079;45.958;12.492;2023-07-30T00:56:13;9.65;;;6.90;;
40373;SDS011;26079;45.958;12.492;2023-07-30T00:58:40;9.07;;;6.25;;
40373;SDS011;26079;45.958;12.492;2023-07-30T01:01:06;11.60;;;8.25;;
40373;SDS011;26079;45.958;12.492;2023-07-30T01:03:32;10.73;;;6.93;;
40373;SDS011;26079;45.958;12.492;2023-07-30T01:05:57;8.63;;;6.82;;
40373;SDS011;26079;45.958;12.492;2023-07-30T01:08:24;8.05;;;6.72;;
40373;SDS011;26079;45.958;12.492;2023-07-30T01:10:50;8.27;;;6.32;;
40373;SDS011;26079;45.958;12.492;2023-07-30T01:13:16;8.70;;;6.72;;
40373;SDS011;26079;45.958;12.492;2023-07-30T01:15:42;8.07;;;6.75;;
40373;SDS011;26079;45.958;12.492;2023-07-30T01:18:08;8.32;;;6.72;;
40373;SDS011;26079;45.958;12.492;2023-07-30T01:20:34;7.15;;;6.20;;
40373;SDS011;26079;45.958;12.492;2023-07-30T01:23:00;7.25;;;5.68;;
40373;SDS011;26079;45.958;12.492;2023-07-30T01:25:29;12.98;;;8.02;;
40373;SDS011;26079;45.958;12.492;2023-07-30T01:28:00;16.52;;;7.55;;
40373;SDS011;26079;45.958;12.492;2023-07-30T01:30:32;27.42;;;7.72;;
40373;SDS011;26079;45.958;12.492;2023-07-30T01:33:03;9.77;;;6.95;;
40373;SDS011;26079;45.958;12.492;2023-07-30T01:35:30;9.60;;;7.07;;
40373;SDS011;26079;45.958;12.492;2023-07-30T01:37:57;11.27;;;7.55;;
40373;SDS011;26079;45.958;12.492;2023-07-30T01:40:24;6.85;;;5.88;;
40373;SDS011;26079;45.958;12.492;2023-07-30T01:42:50;8.32;;;7.22;;
40373;SDS011;26079;45.958;12.492;2023-07-30T01:45:16;9.43;;;7.15;;
40373;SDS011;26079;45.958;12.492;2023-07-30T01:47:41;9.50;;;8.18;;
40373;SDS011;26079;45.958;12.492;2023-07-30T01:50:07;9.95;;;8.13;;
40373;SDS011;26079;45.958;12.492;2023-07-30T01:52:33;11.85;;;8.02;;
40373;SDS011;26079;45.958;12.492;2023-07-30T01:54:59;9.82;;;7.50;;
40373;SDS011;26079;45.958;12.492;2023-07-30T01:57:26;11.82;;;8.00;;
40373;SDS011;26079;45.958;12.492;2023-07-30T01:59:54;10.60;;;7.82;;
40373;SDS011;26079;45.958;12.492;2023-07-30T02:02:20;13.07;;;8.15;;
40373;SDS011;26079;45.958;12.492;2023-07-30T02:04:46;12.63;;;8.80;;
40373;SDS011;26079;45.958;12.492;2023-07-30T02:07:11;8.50;;;6.90;;
40373;SDS011;26079;45.958;12.492;2023-07-30T02:09:37;10.18;;;9.00;;
40373;SDS011;26079;45.958;12.492;2023-07-30T02:12:03;8.23;;;5.43;;
40373;SDS011;26079;45.958;12.492;2023-07-30T02:14:29;9.63;;;7.25;;
40373;SDS011;26079;45.958;12.492;2023-07-30T02:16:55;9.73;;;6.85;;
40373;SDS011;26079;45.958;12.492;2023-07-30T02:19:20;6.18;;;5.60;;
40373;SDS011;26079;45.958;12.492;2023-07-30T02:21:46;4.07;;;3.17;;
40373;SDS011;26079;45.958;12.492;2023-07-30T02:24:12;6.22;;;3.38;;
40373;SDS011;26079;45.958;12.492;2023-07-30T02:26:38;3.60;;;1.63;;
40373;SDS011;26079;45.958;12.492;2023-07-30T02:29:04;2.10;;;1.35;;
40373;SDS011;26079;45.958;12.492;2023-07-30T02:31:29;2.10;;;1.50;;
40373;SDS011;26079;45.958;12.492;2023-07-30T02:33:55;3.08;;;1.63;;
40373;SDS011;26079;45.958;12.492;2023-07-30T02:36:21;3.88;;;1.70;;
40373;SDS011;26079;45.958;12.492;2023-07-30T02:38:49;5.20;;;2.50;;
40373;SDS011;26079;45.958;12.492;2023-07-30T02:41:15;2.17;;;1.58;;
40373;SDS011;26079;45.958;12.492;2023-07-30T02:43:41;2.63;;;1.83;;
40373;SDS011;26079;45.958;12.492;2023-07-30T02:46:07;2.08;;;1.80;;
40373;SDS011;26079;45.958;12.492;2023-07-30T02:48:32;2.25;;;2.05;;
40373;SDS011;26079;45.958;12.492;2023-07-30T02:50:58;3.55;;;2.25;;
40373;SDS011;26079;45.958;12.492;2023-07-30T02:53:24;2.33;;;2.00;;
40373;SDS011;26079;45.958;12.492;2023-07-30T02:55:49;3.35;;;2.00;;
40373;SDS011;26079;45.958;12.492;2023-07-30T02:58:15;2.85;;;2.22;;
40373;SDS011;26079;45.958;12.492;2023-07-30T03:00:41;3.78;;;2.72;;
40373;SDS011;26079;45.958;12.492;2023-07-30T03:03:06;2.55;;;2.35;;
40373;SDS011;26079;45.958;12.492;2023-07-30T03:05:32;2.47;;;1.67;;
40373;SDS011;26079;45.958;12.492;2023-07-30T03:07:58;2.38;;;1.92;;
40373;SDS011;26079;45.958;12.492;2023-07-30T03:10:23;2.58;;;2.38;;
40373;SDS011;26079;45.958;12.492;2023-07-30T03:12:49;4.15;;;2.05;;
40373;SDS011;26079;45.958;12.492;2023-07-30T03:15:15;2.67;;;1.67;;
40373;SDS011;26079;45.958;12.492;2023-07-30T03:17:40;2.92;;;1.65;;
40373;SDS011;26079;45.958;12.492;2023-07-30T03:20:06;2.38;;;1.60;;
40373;SDS011;26079;45.958;12.492;2023-07-30T03:22:33;1.92;;;1.63;;
40373;SDS011;26079;45.958;12.492;2023-07-30T03:24:59;3.03;;;1.80;;
40373;SDS011;26079;45.958;12.492;2023-07-30T03:27:25;3.92;;;1.80;;
40373;SDS011;26079;45.958;12.492;2023-07-30T03:29:50;3.88;;;2.28;;
40373;SDS011;26079;45.958;12.492;2023-07-30T03:32:16;1.60;;;1.45;;
40373;SDS011;26079;45.958;12.492;2023-07-30T03:34:42;1.42;;;1.27;;
40373;SDS011;26079;45.958;12.492;2023-07-30T03:37:07;5.57;;;2.00;;
40373;SDS011;26079;45.958;12.492;2023-07-30T03:39:33;1.75;;;1.63;;
40373;SDS011;26079;45.958;12.492;2023-07-30T03:41:59;3.25;;;1.38;;
40373;SDS011;26079;45.958;12.492;2023-07-30T03:44:24;2.63;;;1.33;;
40373;SDS011;26079;45.958;12.492;2023-07-30T03:46:50;5.95;;;2.05;;
40373;SDS011;26079;45.958;12.492;2023-07-30T03:49:16;4.60;;;1.88;;
40373;SDS011;26079;45.958;12.492;2023-07-30T03:51:41;3.40;;;1.38;;
40373;SDS011;26079;45.958;12.492;2023-07-30T03:54:07;2.97;;;1.35;;
40373;SDS011;26079;45.958;12.492;2023-07-30T03:56:33;1.73;;;1.63;;
40373;SDS011;26079;45.958;12.492;2023-07-30T03:58:58;1.20;;;1.10;;
40373;SDS011;26079;45.958;12.492;2023-07-30T04:01:24;2.72;;;1.75;;
40373;SDS011;26079;45.958;12.492;2023-07-30T04:03:50;2.25;;;1.80;;
40373;SDS011;26079;45.958;12.492;2023-07-30T04:06:15;1.73;;;1.45;;
40373;SDS011;26079;45.958;12.492;2023-07-30T04:08:41;2.88;;;1.67;;
40373;SDS011;26079;45.958;12.492;2023-07-30T04:11:07;1.58;;;1.45;;
40373;SDS011;26079;45.958;12.492;2023-07-30T04:13:33;6.55;;;2.08;;
40373;SDS011;26079;45.958;12.492;2023-07-30T04:15:59;5.68;;;1.58;;
40373;SDS011;26079;45.958;12.492;2023-07-30T04:18:25;2.92;;;1.70;;
40373;SDS011;26079;45.958;12.492;2023-07-30T04:20:50;3.30;;;1.75;;
40373;SDS011;26079;45.958;12.492;2023-07-30T04:23:20;2.65;;;2.03;;
40373;SDS011;26079;45.958;12.492;2023-07-30T04:25:48;8.07;;;2.65;;
40373;SDS011;26079;45.958;12.492;2023-07-30T04:28:14;4.07;;;3.00;;
40373;SDS011;26079;45.958;12.492;2023-07-30T04:30:40;4.72;;;1.83;;
40373;SDS011;26079;45.958;12.492;2023-07-30T04:33:06;3.30;;;2.10;;
40373;SDS011;26079;45.958;12.492;2023-07-30T04:35:31;5.95;;;2.45;;
40373;SDS011;26079;45.958;12.492;2023-07-30T04:37:57;6.50;;;2.55;;
40373;SDS011;26079;45.958;12.492;2023-07-30T04:40:23;8.98;;;2.58;;
40373;SDS011;26079;45.958;12.492;2023-07-30T04:42:48;3.88;;;1.77;;
40373;SDS011;26079;45.958;12.492;2023-07-30T04:45:14;2.92;;;1.85;;
40373;SDS011;26079;45.958;12.492;2023-07-30T04:47:40;2.85;;;2.33;;
40373;SDS011;26079;45.958;12.492;2023-07-30T04:50:05;2.75;;;2.28;;
40373;SDS011;26079;45.958;12.492;2023-07-30T04:52:31;5.15;;;2.40;;
40373;SDS011;26079;45.958;12.492;2023-07-30T04:54:57;2.80;;;2.00;;
40373;SDS011;26079;45.958;12.492;2023-07-30T04:57:23;2.25;;;2.05;;
40373;SDS011;26079;45.958;12.492;2023-07-30T04:59:48;4.13;;;2.08;;
40373;SDS011;26079;45.958;12.492;2023-07-30T05:02:14;4.32;;;2.22;;
40373;SDS011;26079;45.958;12.492;2023-07-30T05:04:40;4.53;;;2.22;;
40373;SDS011;26079;45.958;12.492;2023-07-30T05:07:05;2.95;;;2.10;;
40373;SDS011;26079;45.958;12.492;2023-07-30T05:09:31;3.47;;;2.47;;
40373;SDS011;26079;45.958;12.492;2023-07-30T05:11:57;2.58;;;2.10;;
40373;SDS011;26079;45.958;12.492;2023-07-30T05:14:22;2.10;;;1.90;;
40373;SDS011;26079;45.958;12.492;2023-07-30T05:16:48;3.08;;;2.25;;
40373;SDS011;26079;45.958;12.492;2023-07-30T05:19:15;7.03;;;1.63;;
40373;SDS011;26079;45.958;12.492;2023-07-30T05:21:41;1.50;;;1.40;;
40373;SDS011;26079;45.958;12.492;2023-07-30T05:24:07;1.70;;;1.60;;
40373;SDS011;26079;45.958;12.492;2023-07-30T05:26:32;5.28;;;2.30;;
40373;SDS011;26079;45.958;12.492;2023-07-30T05:28:58;1.90;;;1.80;;
40373;SDS011;26079;45.958;12.492;2023-07-30T05:31:24;4.07;;;2.90;;
40373;SDS011;26079;45.958;12.492;2023-07-30T05:33:49;6.68;;;2.08;;
40373;SDS011;26079;45.958;12.492;2023-07-30T05:36:15;2.30;;;1.92;;
40373;SDS011;26079;45.958;12.492;2023-07-30T05:38:41;2.28;;;2.05;;
40373;SDS011;26079;45.958;12.492;2023-07-30T05:41:06;2.53;;;1.98;;
40373;SDS011;26079;45.958;12.492;2023-07-30T05:43:32;2.70;;;1.67;;
40373;SDS011;26079;45.958;12.492;2023-07-30T05:45:58;2.33;;;1.73;;
40373;SDS011;26079;45.958;12.492;2023-07-30T05:48:23;2.15;;;1.52;;
40373;SDS011;26079;45.958;12.492;2023-07-30T05:50:49;1.52;;;1.17;;
40373;SDS011;26079;45.958;12.492;2023-07-30T05:53:15;2.40;;;1.08;;
40373;SDS011;26079;45.958;12.492;2023-07-30T05:55:40;3.00;;;1.45;;
40373;SDS011;26079;45.958;12.492;2023-07-30T05:58:06;4.15;;;1.10;;
40373;SDS011;26079;45.958;12.492;2023-07-30T06:00:32;0.98;;;0.95;;
40373;SDS011;26079;45.958;12.492;2023-07-30T06:02:57;2.35;;;1.00;;
40373;SDS011;26079;45.958;12.492;2023-07-30T06:05:23;1.50;;;1.13;;
40373;SDS011;26079;45.958;12.492;2023-07-30T06:07:49;4.10;;;1.20;;
40373;SDS011;26079;45.958;12.492;2023-07-30T06:10:14;11.38;;;1.90;;
40373;SDS011;26079;45.958;12.492;2023-07-30T06:12:40;3.03;;;1.05;;
40373;SDS011;26079;45.958;12.492;2023-07-30T06:15:06;1.27;;;1.10;;
40373;SDS011;26079;45.958;12.492;2023-07-30T06:17:33;1.92;;;1.30;;
40373;SDS011;26079;45.958;12.492;2023-07-30T06:19:59;1.88;;;1.40;;
40373;SDS011;26079;45.958;12.492;2023-07-30T06:22:25;2.78;;;1.42;;
40373;SDS011;26079;45.958;12.492;2023-07-30T06:24:51;1.23;;;1.13;;
40373;SDS011;26079;45.958;12.492;2023-07-30T06:27:17;3.40;;;0.75;;
40373;SDS011;26079;45.958;12.492;2023-07-30T06:29:42;3.88;;;1.08;;
40373;SDS011;26079;45.958;12.492;2023-07-30T06:32:08;2.15;;;0.88;;
40373;SDS011;26079;45.958;12.492;2023-07-30T06:34:34;3.22;;;1.02;;
40373;SDS011;26079;45.958;12.492;2023-07-30T06:36:59;2.17;;;1.33;;
40373;SDS011;26079;45.958;12.492;2023-07-30T06:39:25;1.90;;;1.42;;
40373;SDS011;26079;45.958;12.492;2023-07-30T06:41:51;1.67;;;0.80;;
40373;SDS011;26079;45.958;12.492;2023-07-30T06:44:17;2.78;;;1.15;;
40373;SDS011;26079;45.958;12.492;2023-07-30T06:46:42;2.53;;;1.15;;
40373;SDS011;26079;45.958;12.492;2023-07-30T06:49:08;1.30;;;1.00;;
40373;SDS011;26079;45.958;12.492;2023-07-30T06:51:34;2.20;;;1.08;;
40373;SDS011;26079;45.958;12.492;2023-07-30T06:53:59;2.35;;;1.30;;
40373;SDS011;26079;45.958;12.492;2023-07-30T06:56:25;1.65;;;0.90;;
40373;SDS011;26079;45.958;12.492;2023-07-30T06:58:51;0.65;;;0.60;;
40373;SDS011;26079;45.958;12.492;2023-07-30T07:01:16;1.67;;;1.35;;
40373;SDS011;26079;45.958;12.492;2023-07-30T07:03:42;5.50;;;1.60;;
40373;SDS011;26079;45.958;12.492;2023-07-30T07:06:08;2.00;;;1.13;;
40373;SDS011;26079;45.958;12.492;2023-07-30T07:08:33;2.47;;;2.00;;
40373;SDS011;26079;45.958;12.492;2023-07-30T07:10:59;2.80;;;1.90;;
40373;SDS011;26079;45.958;12.492;2023-07-30T07:13:25;2.53;;;1.58;;
40373;SDS011;26079;45.958;12.492;2023-07-30T07:15:50;3.40;;;1.85;;
40373;SDS011;26079;45.958;12.492;2023-07-30T07:18:17;3.95;;;1.70;;
40373;SDS011;26079;45.958;12.492;2023-07-30T07:20:43;1.92;;;1.75;;
40373;SDS011;26079;45.958;12.492;2023-07-30T07:23:08;4.13;;;1.55;;
40373;SDS011;26079;45.958;12.492;2023-07-30T07:25:34;2.75;;;2.40;;
40373;SDS011;26079;45.958;12.492;2023-07-30T07:28:00;2.05;;;1.83;;
40373;SDS011;26079;45.958;12.492;2023-07-30T07:30:26;2.28;;;2.00;;
40373;SDS011;26079;45.958;12.492;2023-07-30T07:32:52;1.90;;;1.73;;
40373;SDS011;26079;45.958;12.492;2023-07-30T07:35:18;3.72;;;1.65;;
40373;SDS011;26079;45.958;12.492;2023-07-30T07:37:47;2.70;;;1.58;;
40373;SDS011;26079;45.958;12.492;2023-07-30T07:40:13;1.27;;;1.05;;
40373;SDS011;26079;45.958;12.492;2023-07-30T07:42:39;2.88;;;2.00;;
40373;SDS011;26079;45.958;12.492;2023-07-30T07:45:06;2.92;;;1.50;;
40373;SDS011;26079;45.958;12.492;2023-07-30T07:47:32;4.15;;;1.58;;
40373;SDS011;26079;45.958;12.492;2023-07-30T07:49:58;1.52;;;1.42;;
40373;SDS011;26079;45.958;12.492;2023-07-30T07:52:23;1.30;;;1.20;;
40373;SDS011;26079;45.958;12.492;2023-07-30T07:54:49;2.08;;;1.88;;
40373;SDS011;26079;45.958;12.492;2023-07-30T07:57:15;1.85;;;1.73;;
40373;SDS011;26079;45.958;12.492;2023-07-30T07:59:40;3.15;;;1.90;;
40373;SDS011;26079;45.958;12.492;2023-07-30T08:02:09;2.95;;;1.70;;
40373;SDS011;26079;45.958;12.492;2023-07-30T08:04:36;2.10;;;1.75;;
40373;SDS011;26079;45.958;12.492;2023-07-30T08:07:01;4.07;;;1.65;;
40373;SDS011;26079;45.958;12.492;2023-07-30T08:09:28;1.55;;;1.40;;
40373;SDS011;26079;45.958;12.492;2023-07-30T08:11:54;1.38;;;1.15;;
40373;SDS011;26079;45.958;12.492;2023-07-30T08:14:20;1.48;;;1.38;;
40373;SDS011;26079;45.958;12.492;2023-07-30T08:16:46;3.80;;;1.50;;
40373;SDS011;26079;45.958;12.492;2023-07-30T08:19:11;2.95;;;1.65;;
40373;SDS011;26079;45.958;12.492;2023-07-30T08:21:37;1.42;;;1.05;;
40373;SDS011;26079;45.958;12.492;2023-07-30T08:24:03;1.35;;;1.13;;
40373;SDS011;26079;45.958;12.492;2023-07-30T08:26:29;1.90;;;1.52;;
40373;SDS011;26079;45.958;12.492;2023-07-30T08:28:55;1.70;;;1.40;;
40373;SDS011;26079;45.958;12.492;2023-07-30T08:31:20;1.42;;;1.33;;
40373;SDS011;26079;45.958;12.492;2023-07-30T08:33:46;2.60;;;1.30;;
40373;SDS011;26079;45.958;12.492;2023-07-30T08:36:12;1.70;;;1.60;;
40373;SDS011;26079;45.958;12.492;2023-07-30T08:38:38;1.48;;;1.30;;
40373;SDS011;26079;45.958;12.492;2023-07-30T08:41:03;1.02;;;0.93;;
40373;SDS011;26079;45.958;12.492;2023-07-30T08:43:29;1.88;;;1.25;;
40373;SDS011;26079;45.958;12.492;2023-07-30T08:45:55;1.33;;;0.90;;
40373;SDS011;26079;45.958;12.492;2023-07-30T08:48:21;1.10;;;1.00;;
40373;SDS011;26079;45.958;12.492;2023-07-30T08:50:47;2.15;;;1.30;;
40373;SDS011;26079;45.958;12.492;2023-07-30T08:53:14;3.90;;;1.60;;
40373;SDS011;26079;45.958;12.492;2023-07-30T08:55:40;3.10;;;1.45;;
40373;SDS011;26079;45.958;12.492;2023-07-30T08:58:06;4.45;;;1.45;;
40373;SDS011;26079;45.958;12.492;2023-07-30T09:00:35;2.70;;;1.65;;
40373;SDS011;26079;45.958;12.492;2023-07-30T09:03:03;1.55;;;1.33;;
40373;SDS011;26079;45.958;12.492;2023-07-30T09:05:29;2.78;;;1.35;;
40373;SDS011;26079;45.958;12.492;2023-07-30T09:07:56;1.33;;;1.20;;
40373;SDS011;26079;45.958;12.492;2023-07-30T09:10:23;1.55;;;1.38;;
40373;SDS011;26079;45.958;12.492;2023-07-30T09:12:54;3.47;;;1.50;;
40373;SDS011;26079;45.958;12.492;2023-07-30T09:15:32;1.55;;;1.45;;
40373;SDS011;26079;45.958;12.492;2023-07-30T09:18:00;1.83;;;1.00;;
40373;SDS011;26079;45.958;12.492;2023-07-30T09:20:26;5.47;;;1.30;;
40373;SDS011;26079;45.958;12.492;2023-07-30T09:22:52;1.52;;;1.25;;
40373;SDS011;26079;45.958;12.492;2023-07-30T09:25:22;0.95;;;0.93;;
40373;SDS011;26079;45.958;12.492;2023-07-30T09:27:49;1.40;;;1.30;;
40373;SDS011;26079;45.958;12.492;2023-07-30T09:30:21;1.65;;;1.52;;
40373;SDS011;26079;45.958;12.492;2023-07-30T09:35:18;1.40;;;1.30;;
40373;SDS011;26079;45.958;12.492;2023-07-30T09:37:44;2.90;;;1.63;;
40373;SDS011;26079;45.958;12.492;2023-07-30T09:40:11;2.13;;;1.08;;
40373;SDS011;26079;45.958;12.492;2023-07-30T09:42:38;1.95;;;1.67;;
40373;SDS011;26079;45.958;12.492;2023-07-30T09:45:24;2.33;;;1.52;;
40373;SDS011;26079;45.958;12.492;2023-07-30T09:47:51;2.97;;;1.08;;
40373;SDS011;26079;45.958;12.492;2023-07-30T09:50:18;3.03;;;1.30;;
40373;SDS011;26079;45.958;12.492;2023-07-30T09:52:44;3.40;;;1.15;;
40373;SDS011;26079;45.958;12.492;2023-07-30T09:55:11;2.63;;;1.00;;
40373;SDS011;26079;45.958;12.492;2023-07-30T09:57:37;1.73;;;1.17;;
40373;SDS011;26079;45.958;12.492;2023-07-30T10:00:04;1.35;;;1.05;;
40373;SDS011;26079;45.958;12.492;2023-07-30T10:02:31;3.08;;;0.95;;
40373;SDS011;26079;45.958;12.492;2023-07-30T10:05:02;1.58;;;1.13;;
40373;SDS011;26079;45.958;12.492;2023-07-30T10:07:33;1.58;;;0.70;;
40373;SDS011;26079;45.958;12.492;2023-07-30T10:10:00;0.98;;;0.60;;
40373;SDS011;26079;45.958;12.492;2023-07-30T10:12:31;1.85;;;1.00;;
40373;SDS011;26079;45.958;12.492;2023-07-30T10:15:00;0.95;;;0.75;;
40373;SDS011;26079;45.958;12.492;2023-07-30T10:17:26;0.80;;;0.68;;
40373;SDS011;26079;45.958;12.492;2023-07-30T10:19:53;0.80;;;0.60;;
40373;SDS011;26079;45.958;12.492;2023-07-30T10:25:00;1.67;;;0.60;;
40373;SDS011;26079;45.958;12.492;2023-07-30T10:27:28;1.55;;;0.88;;
40373;SDS011;26079;45.958;12.492;2023-07-30T10:30:16;0.85;;;0.47;;
40373;SDS011;26079;45.958;12.492;2023-07-30T10:35:34;0.73;;;0.55;;
40373;SDS011;26079;45.958;12.492;2023-07-30T10:38:14;1.15;;;0.50;;
40373;SDS011;26079;45.958;12.492;2023-07-30T10:41:18;1.52;;;0.70;;
40373;SDS011;26079;45.958;12.492;2023-07-30T10:46:09;0.57;;;0.57;;
40373;SDS011;26079;45.958;12.492;2023-07-30T10:48:37;0.90;;;0.73;;
40373;SDS011;26079;45.958;12.492;2023-07-30T10:51:05;1.10;;;0.77;;
40373;SDS011;26079;45.958;12.492;2023-07-30T10:53:32;2.20;;;0.82;;
40373;SDS011;26079;45.958;12.492;2023-07-30T10:56:00;2.58;;;0.60;;
40373;SDS011;26079;45.958;12.492;2023-07-30T10:58:29;2.45;;;0.88;;
40373;SDS011;26079;45.958;12.492;2023-07-30T11:00:56;0.73;;;0.60;;
40373;SDS011;26079;45.958;12.492;2023-07-30T11:03:24;0.70;;;0.63;;
40373;SDS011;26079;45.958;12.492;2023-07-30T11:05:55;1.70;;;1.23;;
40373;SDS011;26079;45.958;12.492;2023-07-30T11:08:31;1.52;;;0.77;;
40373;SDS011;26079;45.958;12.492;2023-07-30T11:11:01;0.55;;;0.40;;
40373;SDS011;26079;45.958;12.492;2023-07-30T11:13:27;0.75;;;0.60;;
40373;SDS011;26079;45.958;12.492;2023-07-30T11:15:53;1.30;;;0.73;;
40373;SDS011;26079;45.958;12.492;2023-07-30T11:18:19;1.65;;;1.02;;
40373;SDS011;26079;45.958;12.492;2023-07-30T11:20:44;1.10;;;0.70;;
40373;SDS011;26079;45.958;12.492;2023-07-30T11:23:20;1.48;;;0.60;;
40373;SDS011;26079;45.958;12.492;2023-07-30T11:25:50;0.77;;;0.55;;
40373;SDS011;26079;45.958;12.492;2023-07-30T11:28:36;1.42;;;0.85;;
40373;SDS011;26079;45.958;12.492;2023-07-30T11:31:07;3.63;;;1.48;;
40373;SDS011;26079;45.958;12.492;2023-07-30T11:33:41;0.55;;;0.47;;
40373;SDS011;26079;45.958;12.492;2023-07-30T11:36:09;0.82;;;0.50;;
40373;SDS011;26079;45.958;12.492;2023-07-30T11:38:39;1.80;;;0.60;;
40373;SDS011;26079;45.958;12.492;2023-07-30T11:41:05;2.13;;;0.35;;
40373;SDS011;26079;45.958;12.492;2023-07-30T11:43:35;0.50;;;0.40;;
40373;SDS011;26079;45.958;12.492;2023-07-30T11:46:09;1.00;;;0.77;;
40373;SDS011;26079;45.958;12.492;2023-07-30T11:48:45;0.40;;;0.40;;
40373;SDS011;26079;45.958;12.492;2023-07-30T11:53:48;2.15;;;0.60;;
40373;SDS011;26079;45.958;12.492;2023-07-30T11:56:26;0.68;;;0.50;;
40373;SDS011;26079;45.958;12.492;2023-07-30T11:59:00;1.13;;;0.50;;
40373;SDS011;26079;45.958;12.492;2023-07-30T12:01:29;3.45;;;0.47;;
40373;SDS011;26079;45.958;12.492;2023-07-30T12:03:59;2.72;;;0.95;;
40373;SDS011;26079;45.958;12.492;2023-07-30T12:06:41;0.65;;;0.60;;
40373;SDS011;26079;45.958;12.492;2023-07-30T12:09:10;0.45;;;0.40;;
40373;SDS011;26079;45.958;12.492;2023-07-30T12:11:43;2.15;;;0.63;;
40373;SDS011;26079;45.958;12.492;2023-07-30T12:14:15;0.55;;;0.55;;
40373;SDS011;26079;45.958;12.492;2023-07-30T12:16:44;0.38;;;0.35;;
40373;SDS011;26079;45.958;12.492;2023-07-30T12:19:10;0.52;;;0.38;;
40373;SDS011;26079;45.958;12.492;2023-07-30T12:21:36;1.00;;;0.82;;
40373;SDS011;26079;45.958;12.492;2023-07-30T12:24:02;1.85;;;0.60;;
40373;SDS011;26079;45.958;12.492;2023-07-30T12:26:28;0.60;;;0.60;;
40373;SDS011;26079;45.958;12.492;2023-07-30T12:28:54;0.70;;;0.68;;
40373;SDS011;26079;45.958;12.492;2023-07-30T12:31:20;0.60;;;0.30;;
40373;SDS011;26079;45.958;12.492;2023-07-30T12:33:46;0.88;;;0.43;;
40373;SDS011;26079;45.958;12.492;2023-07-30T12:36:12;1.77;;;0.75;;
40373;SDS011;26079;45.958;12.492;2023-07-30T12:38:37;0.70;;;0.65;;
40373;SDS011;26079;45.958;12.492;2023-07-30T12:41:04;0.43;;;0.30;;
40373;SDS011;26079;45.958;12.492;2023-07-30T12:46:00;0.50;;;0.45;;
40373;SDS011;26079;45.958;12.492;2023-07-30T12:48:26;1.52;;;0.47;;
40373;SDS011;26079;45.958;12.492;2023-07-30T12:50:51;0.40;;;0.30;;
40373;SDS011;26079;45.958;12.492;2023-07-30T12:53:17;1.63;;;1.00;;
40373;SDS011;26079;45.958;12.492;2023-07-30T12:55:42;0.50;;;0.50;;
40373;SDS011;26079;45.958;12.492;2023-07-30T12:58:08;4.68;;;1.33;;
40373;SDS011;26079;45.958;12.492;2023-07-30T13:00:34;0.80;;;0.60;;
40373;SDS011;26079;45.958;12.492;2023-07-30T13:02:59;1.48;;;0.50;;
40373;SDS011;26079;45.958;12.492;2023-07-30T13:05:27;0.63;;;0.40;;
40373;SDS011;26079;45.958;12.492;2023-07-30T13:07:52;2.30;;;0.73;;
40373;SDS011;26079;45.958;12.492;2023-07-30T13:10:18;0.88;;;0.52;;
40373;SDS011;26079;45.958;12.492;2023-07-30T13:12:44;0.90;;;0.70;;
40373;SDS011;26079;45.958;12.492;2023-07-30T13:15:09;0.95;;;0.50;;
40373;SDS011;26079;45.958;12.492;2023-07-30T13:17:35;0.45;;;0.45;;
40373;SDS011;26079;45.958;12.492;2023-07-30T13:20:02;1.23;;;0.90;;
40373;SDS011;26079;45.958;12.492;2023-07-30T13:22:28;0.60;;;0.57;;
40373;SDS011;26079;45.958;12.492;2023-07-30T13:24:54;3.17;;;0.85;;
40373;SDS011;26079;45.958;12.492;2023-07-30T13:27:20;0.40;;;0.40;;
40373;SDS011;26079;45.958;12.492;2023-07-30T13:29:45;1.48;;;0.50;;
40373;SDS011;26079;45.958;12.492;2023-07-30T13:32:13;1.20;;;0.50;;
40373;SDS011;26079;45.958;12.492;2023-07-30T13:34:38;0.52;;;0.50;;
40373;SDS011;26079;45.958;12.492;2023-07-30T13:37:04;0.70;;;0.50;;
40373;SDS011;26079;45.958;12.492;2023-07-30T13:39:30;0.57;;;0.50;;
40373;SDS011;26079;45.958;12.492;2023-07-30T13:41:56;0.50;;;0.50;;
40373;SDS011;26079;45.958;12.492;2023-07-30T13:44:21;0.57;;;0.57;;
40373;SDS011;26079;45.958;12.492;2023-07-30T13:46:47;0.98;;;0.63;;
40373;SDS011;26079;45.958;12.492;2023-07-30T13:49:13;0.95;;;0.60;;
40373;SDS011;26079;45.958;12.492;2023-07-30T13:51:38;1.92;;;0.63;;
40373;SDS011;26079;45.958;12.492;2023-07-30T13:54:04;0.65;;;0.43;;
40373;SDS011;26079;45.958;12.492;2023-07-30T13:56:32;1.83;;;1.10;;
40373;SDS011;26079;45.958;12.492;2023-07-30T13:58:58;1.13;;;0.98;;
40373;SDS011;26079;45.958;12.492;2023-07-30T14:01:24;0.90;;;0.80;;
40373;SDS011;26079;45.958;12.492;2023-07-30T14:03:50;4.22;;;0.65;;
40373;SDS011;26079;45.958;12.492;2023-07-30T14:06:16;0.75;;;0.75;;
40373;SDS011;26079;45.958;12.492;2023-07-30T14:08:42;0.90;;;0.82;;
40373;SDS011;26079;45.958;12.492;2023-07-30T14:11:07;0.80;;;0.80;;
40373;SDS011;26079;45.958;12.492;2023-07-30T14:13:33;1.20;;;0.95;;
40373;SDS011;26079;45.958;12.492;2023-07-30T14:15:59;1.40;;;0.95;;
40373;SDS011;26079;45.958;12.492;2023-07-30T14:18:25;0.75;;;0.75;;
40373;SDS011;26079;45.958;12.492;2023-07-30T14:20:50;0.77;;;0.70;;
40373;SDS011;26079;45.958;12.492;2023-07-30T14:23:16;1.02;;;0.70;;
40373;SDS011;26079;45.958;12.492;2023-07-30T14:25:43;0.70;;;0.70;;
40373;SDS011;26079;45.958;12.492;2023-07-30T14:28:09;1.00;;;0.60;;
40373;SDS011;26079;45.958;12.492;2023-07-30T14:30:34;16.10;;;11.80;;
40373;SDS011;26079;45.958;12.492;2023-07-30T14:33:01;7.18;;;6.05;;
40373;SDS011;26079;45.958;12.492;2023-07-30T14:35:27;9.02;;;6.63;;
40373;SDS011;26079;45.958;12.492;2023-07-30T14:37:53;11.38;;;7.22;;
40373;SDS011;26079;45.958;12.492;2023-07-30T14:40:19;3.80;;;3.28;;
40373;SDS011;26079;45.958;12.492;2023-07-30T14:42:45;4.13;;;3.28;;
40373;SDS011;26079;45.958;12.492;2023-07-30T14:45:11;2.53;;;1.92;;